sensor_id;sensor_type;location;lat;lon;timestamp;temperature;humidity
680;DHT22;322;48.846;9.230;2023-10-31T00:01:56;11.80;99.90
680;DHT22;322;48.846;9.230;2023-10-31T00:04:24;11.80;99.90
680;DHT22;322;48.846;9.230;2023-10-31T00:06:53;11.80;99.90
680;DHT22;322;48.846;9.230;2023-10-31T00:09:21;11.80;99.90
680;DHT22;322;48.846;9.230;2023-10-31T00:11:48;11.80;99.90
680;DHT22;322;48.846;9.230;2023-10-31T00:14:16;11.80;99.90
680;DHT22;322;48.846;9.230;2023-10-31T00:16:58;11.70;99.90
680;DHT22;322;48.846;9.230;2023-10-31T00:19:26;11.80;99.90
680;DHT22;322;48.846;9.230;2023-10-31T00:21:54;11.80;99.90
680;DHT22;322;48.846;9.230;2023-10-31T00:24:22;11.80;99.90
680;DHT22;322;48.846;9.230;2023-10-31T00:26:50;11.80;99.90
680;DHT22;322;48.846;9.230;2023-10-31T00:29:19;11.80;99.90
680;DHT22;322;48.846;9.230;2023-10-31T00:31:47;11.80;99.90
680;DHT22;322;48.846;9.230;2023-10-31T00:34:16;11.80;99.90
680;DHT22;322;48.846;9.230;2023-10-31T00:36:44;11.70;99.90
680;DHT22;322;48.846;9.230;2023-10-31T00:39:12;11.80;99.90
680;DHT22;322;48.846;9.230;2023-10-31T00:41:44;11.70;99.90
680;DHT22;322;48.846;9.230;2023-10-31T00:44:13;11.60;99.90
680;DHT22;322;48.846;9.230;2023-10-31T00:46:41;11.60;99.90
680;DHT22;322;48.846;9.230;2023-10-31T00:49:10;11.60;99.90
680;DHT22;322;48.846;9.230;2023-10-31T00:51:39;11.70;99.90
680;DHT22;322;48.846;9.230;2023-10-31T00:54:07;11.70;99.90
680;DHT22;322;48.846;9.230;2023-10-31T00:56:35;11.70;99.90
680;DHT22;322;48.846;9.230;2023-10-31T00:59:03;11.70;99.90
680;DHT22;322;48.846;9.230;2023-10-31T01:01:31;11.60;99.90
680;DHT22;322;48.846;9.230;2023-10-31T01:03:59;11.60;99.90
680;DHT22;322;48.846;9.230;2023-10-31T01:06:27;11.60;99.90
680;DHT22;322;48.846;9.230;2023-10-31T01:08:57;11.60;99.90
680;DHT22;322;48.846;9.230;2023-10-31T01:11:25;11.50;99.90
680;DHT22;322;48.846;9.230;2023-10-31T01:13:53;11.50;99.90
680;DHT22;322;48.846;9.230;2023-10-31T01:16:20;11.40;99.90
680;DHT22;322;48.846;9.230;2023-10-31T01:18:48;11.30;99.90
680;DHT22;322;48.846;9.230;2023-10-31T01:21:16;11.10;99.90
680;DHT22;322;48.846;9.230;2023-10-31T01:23:44;11.00;99.90
680;DHT22;322;48.846;9.230;2023-10-31T01:26:14;10.90;99.90
680;DHT22;322;48.846;9.230;2023-10-31T01:28:41;10.90;99.90
680;DHT22;322;48.846;9.230;2023-10-31T01:31:10;10.80;99.90
680;DHT22;322;48.846;9.230;2023-10-31T01:33:38;10.80;99.90
680;DHT22;322;48.846;9.230;2023-10-31T01:36:06;10.70;99.90
680;DHT22;322;48.846;9.230;2023-10-31T01:38:35;10.60;99.90
680;DHT22;322;48.846;9.230;2023-10-31T01:41:03;10.50;99.90
680;DHT22;322;48.846;9.230;2023-10-31T01:43:34;10.50;99.90
680;DHT22;322;48.846;9.230;2023-10-31T01:46:03;10.40;99.90
680;DHT22;322;48.846;9.230;2023-10-31T01:48:33;10.30;99.90
680;DHT22;322;48.846;9.230;2023-10-31T01:51:03;10.20;99.90
680;DHT22;322;48.846;9.230;2023-10-31T01:53:32;10.20;99.90
680;DHT22;322;48.846;9.230;2023-10-31T01:56:02;10.20;99.90
680;DHT22;322;48.846;9.230;2023-10-31T01:58:34;10.20;99.90
680;DHT22;322;48.846;9.230;2023-10-31T02:01:03;10.20;99.90
680;DHT22;322;48.846;9.230;2023-10-31T02:03:32;10.30;99.90
680;DHT22;322;48.846;9.230;2023-10-31T02:06:01;10.30;99.90
680;DHT22;322;48.846;9.230;2023-10-31T02:08:29;10.40;99.90
680;DHT22;322;48.846;9.230;2023-10-31T02:10:57;10.40;99.90
680;DHT22;322;48.846;9.230;2023-10-31T02:13:25;10.40;99.90
680;DHT22;322;48.846;9.230;2023-10-31T02:15:54;10.50;99.90
680;DHT22;322;48.846;9.230;2023-10-31T02:18:22;10.60;99.90
680;DHT22;322;48.846;9.230;2023-10-31T02:20:50;10.60;99.90
680;DHT22;322;48.846;9.230;2023-10-31T02:23:20;10.50;99.90
680;DHT22;322;48.846;9.230;2023-10-31T02:25:48;10.50;99.90
680;DHT22;322;48.846;9.230;2023-10-31T02:28:15;10.50;99.90
680;DHT22;322;48.846;9.230;2023-10-31T02:30:43;10.50;99.90
680;DHT22;322;48.846;9.230;2023-10-31T02:33:11;10.50;99.90
680;DHT22;322;48.846;9.230;2023-10-31T02:35:39;10.50;99.90
680;DHT22;322;48.846;9.230;2023-10-31T02:38:07;10.50;99.90
680;DHT22;322;48.846;9.230;2023-10-31T02:40:36;10.40;99.90
680;DHT22;322;48.846;9.230;2023-10-31T02:43:04;10.40;99.90
680;DHT22;322;48.846;9.230;2023-10-31T02:45:32;10.40;99.90
680;DHT22;322;48.846;9.230;2023-10-31T02:48:00;10.30;99.90
680;DHT22;322;48.846;9.230;2023-10-31T02:50:28;10.30;99.90
680;DHT22;322;48.846;9.230;2023-10-31T02:52:56;10.30;99.90
680;DHT22;322;48.846;9.230;2023-10-31T02:55:24;10.30;99.90
680;DHT22;322;48.846;9.230;2023-10-31T02:57:53;10.30;99.90
680;DHT22;322;48.846;9.230;2023-10-31T03:00:21;10.20;99.90
680;DHT22;322;48.846;9.230;2023-10-31T03:02:49;10.20;99.90
680;DHT22;322;48.846;9.230;2023-10-31T03:05:18;10.20;99.90
680;DHT22;322;48.846;9.230;2023-10-31T03:07:46;10.10;99.90
680;DHT22;322;48.846;9.230;2023-10-31T03:10:14;10.00;99.90
680;DHT22;322;48.846;9.230;2023-10-31T03:12:42;9.90;99.90
680;DHT22;322;48.846;9.230;2023-10-31T03:15:11;9.90;99.90
680;DHT22;322;48.846;9.230;2023-10-31T03:17:39;9.80;99.90
680;DHT22;322;48.846;9.230;2023-10-31T03:20:08;9.80;99.90
680;DHT22;322;48.846;9.230;2023-10-31T03:22:36;9.90;99.90
680;DHT22;322;48.846;9.230;2023-10-31T03:25:05;10.00;99.90
680;DHT22;322;48.846;9.230;2023-10-31T03:27:33;10.10;99.90
680;DHT22;322;48.846;9.230;2023-10-31T03:30:01;10.10;99.90
680;DHT22;322;48.846;9.230;2023-10-31T03:32:31;10.10;99.90
680;DHT22;322;48.846;9.230;2023-10-31T03:34:59;10.10;99.90
680;DHT22;322;48.846;9.230;2023-10-31T03:37:27;10.00;99.90
680;DHT22;322;48.846;9.230;2023-10-31T03:39:54;10.10;99.90
680;DHT22;322;48.846;9.230;2023-10-31T03:42:22;10.00;99.90
680;DHT22;322;48.846;9.230;2023-10-31T03:44:50;10.10;99.90
680;DHT22;322;48.846;9.230;2023-10-31T03:47:18;10.10;99.90
680;DHT22;322;48.846;9.230;2023-10-31T03:49:47;10.10;99.90
680;DHT22;322;48.846;9.230;2023-10-31T03:52:15;10.10;99.90
680;DHT22;322;48.846;9.230;2023-10-31T03:54:43;10.20;99.90
680;DHT22;322;48.846;9.230;2023-10-31T03:57:11;10.20;99.90
680;DHT22;322;48.846;9.230;2023-10-31T03:59:39;10.20;99.90
680;DHT22;322;48.846;9.230;2023-10-31T04:02:07;10.30;99.90
680;DHT22;322;48.846;9.230;2023-10-31T04:04:35;10.30;99.90
680;DHT22;322;48.846;9.230;2023-10-31T04:07:04;10.20;99.90
680;DHT22;322;48.846;9.230;2023-10-31T04:09:32;10.20;99.90
680;DHT22;322;48.846;9.230;2023-10-31T04:12:00;10.10;99.90
680;DHT22;322;48.846;9.230;2023-10-31T04:14:28;10.10;99.90
680;DHT22;322;48.846;9.230;2023-10-31T04:16:56;10.00;99.90
680;DHT22;322;48.846;9.230;2023-10-31T04:19:24;9.90;99.90
680;DHT22;322;48.846;9.230;2023-10-31T04:21:53;9.90;99.90
680;DHT22;322;48.846;9.230;2023-10-31T04:24:22;10.00;99.90
680;DHT22;322;48.846;9.230;2023-10-31T04:26:50;10.10;99.90
680;DHT22;322;48.846;9.230;2023-10-31T04:29:18;10.10;99.90
680;DHT22;322;48.846;9.230;2023-10-31T04:31:46;10.20;99.90
680;DHT22;322;48.846;9.230;2023-10-31T04:34:14;10.30;99.90
680;DHT22;322;48.846;9.230;2023-10-31T04:36:42;10.40;99.90
680;DHT22;322;48.846;9.230;2023-10-31T04:39:10;10.30;99.90
680;DHT22;322;48.846;9.230;2023-10-31T04:41:39;10.30;99.90
680;DHT22;322;48.846;9.230;2023-10-31T04:44:07;10.20;99.90
680;DHT22;322;48.846;9.230;2023-10-31T04:46:35;10.30;99.90
680;DHT22;322;48.846;9.230;2023-10-31T04:49:04;10.30;99.90
680;DHT22;322;48.846;9.230;2023-10-31T04:51:33;10.30;99.90
680;DHT22;322;48.846;9.230;2023-10-31T04:54:01;10.30;99.90
680;DHT22;322;48.846;9.230;2023-10-31T04:56:30;10.40;99.90
680;DHT22;322;48.846;9.230;2023-10-31T04:58:59;10.30;99.90
680;DHT22;322;48.846;9.230;2023-10-31T05:01:27;10.20;99.90
680;DHT22;322;48.846;9.230;2023-10-31T05:03:55;10.20;99.90
680;DHT22;322;48.846;9.230;2023-10-31T05:06:36;10.20;99.90
680;DHT22;322;48.846;9.230;2023-10-31T05:09:04;10.10;99.90
680;DHT22;322;48.846;9.230;2023-10-31T05:11:33;10.10;99.90
680;DHT22;322;48.846;9.230;2023-10-31T05:14:02;10.10;99.90
680;DHT22;322;48.846;9.230;2023-10-31T05:16:31;10.00;99.90
680;DHT22;322;48.846;9.230;2023-10-31T05:18:59;10.00;99.90
680;DHT22;322;48.846;9.230;2023-10-31T05:21:31;10.00;99.90
680;DHT22;322;48.846;9.230;2023-10-31T05:23:59;10.00;99.90
680;DHT22;322;48.846;9.230;2023-10-31T05:26:27;10.00;99.90
680;DHT22;322;48.846;9.230;2023-10-31T05:28:56;9.90;99.90
680;DHT22;322;48.846;9.230;2023-10-31T05:31:26;9.90;99.90
680;DHT22;322;48.846;9.230;2023-10-31T05:33:54;9.80;99.90
680;DHT22;322;48.846;9.230;2023-10-31T05:36:25;9.80;99.90
680;DHT22;322;48.846;9.230;2023-10-31T05:38:54;9.80;99.90
680;DHT22;322;48.846;9.230;2023-10-31T05:41:22;9.80;99.90
680;DHT22;322;48.846;9.230;2023-10-31T05:43:50;9.80;99.90
680;DHT22;322;48.846;9.230;2023-10-31T05:46:18;9.80;99.90
680;DHT22;322;48.846;9.230;2023-10-31T05:48:48;9.70;99.90
680;DHT22;322;48.846;9.230;2023-10-31T05:51:18;9.70;99.90
680;DHT22;322;48.846;9.230;2023-10-31T05:53:48;9.70;99.90
680;DHT22;322;48.846;9.230;2023-10-31T05:56:16;9.80;99.90
680;DHT22;322;48.846;9.230;2023-10-31T05:58:45;9.70;99.90
680;DHT22;322;48.846;9.230;2023-10-31T06:01:13;9.60;99.90
680;DHT22;322;48.846;9.230;2023-10-31T06:03:41;9.70;99.90
680;DHT22;322;48.846;9.230;2023-10-31T06:06:12;9.70;99.90
680;DHT22;322;48.846;9.230;2023-10-31T06:08:41;9.70;99.90
680;DHT22;322;48.846;9.230;2023-10-31T06:11:09;9.70;99.90
680;DHT22;322;48.846;9.230;2023-10-31T06:13:39;9.60;99.90
680;DHT22;322;48.846;9.230;2023-10-31T06:16:07;9.60;99.90
680;DHT22;322;48.846;9.230;2023-10-31T06:18:37;9.60;99.90
680;DHT22;322;48.846;9.230;2023-10-31T06:21:05;9.70;99.90
680;DHT22;322;48.846;9.230;2023-10-31T06:23:36;9.60;99.90
680;DHT22;322;48.846;9.230;2023-10-31T06:26:04;9.60;99.90
680;DHT22;322;48.846;9.230;2023-10-31T06:28:32;9.60;99.90
680;DHT22;322;48.846;9.230;2023-10-31T06:31:06;9.50;99.90
680;DHT22;322;48.846;9.230;2023-10-31T06:33:34;9.40;99.90
680;DHT22;322;48.846;9.230;2023-10-31T06:36:02;9.50;99.90
680;DHT22;322;48.846;9.230;2023-10-31T06:38:30;9.50;99.90
680;DHT22;322;48.846;9.230;2023-10-31T06:40:59;9.70;99.90
680;DHT22;322;48.846;9.230;2023-10-31T06:43:27;9.70;99.90
680;DHT22;322;48.846;9.230;2023-10-31T06:45:59;9.80;99.90
680;DHT22;322;48.846;9.230;2023-10-31T06:48:29;9.80;99.90
680;DHT22;322;48.846;9.230;2023-10-31T06:50:57;9.90;99.90
680;DHT22;322;48.846;9.230;2023-10-31T06:53:25;10.00;99.90
680;DHT22;322;48.846;9.230;2023-10-31T06:55:53;10.00;99.90
680;DHT22;322;48.846;9.230;2023-10-31T06:58:22;10.00;99.90
680;DHT22;322;48.846;9.230;2023-10-31T07:00:50;10.20;99.90
680;DHT22;322;48.846;9.230;2023-10-31T07:03:18;10.20;99.90
680;DHT22;322;48.846;9.230;2023-10-31T07:05:46;10.20;99.90
680;DHT22;322;48.846;9.230;2023-10-31T07:08:14;10.30;99.90
680;DHT22;322;48.846;9.230;2023-10-31T07:10:42;10.40;99.90
680;DHT22;322;48.846;9.230;2023-10-31T07:13:11;10.50;99.90
680;DHT22;322;48.846;9.230;2023-10-31T07:15:40;10.50;99.90
680;DHT22;322;48.846;9.230;2023-10-31T07:18:08;10.50;99.90
680;DHT22;322;48.846;9.230;2023-10-31T07:20:36;10.60;99.90
680;DHT22;322;48.846;9.230;2023-10-31T07:23:04;10.70;99.90
680;DHT22;322;48.846;9.230;2023-10-31T07:25:32;10.70;99.90
680;DHT22;322;48.846;9.230;2023-10-31T07:28:00;10.70;99.90
680;DHT22;322;48.846;9.230;2023-10-31T07:30:28;10.80;99.90
680;DHT22;322;48.846;9.230;2023-10-31T07:32:58;10.90;99.90
680;DHT22;322;48.846;9.230;2023-10-31T07:35:27;10.90;99.90
680;DHT22;322;48.846;9.230;2023-10-31T07:37:55;11.00;99.90
680;DHT22;322;48.846;9.230;2023-10-31T07:40:23;11.10;99.90
680;DHT22;322;48.846;9.230;2023-10-31T07:42:51;11.10;99.90
680;DHT22;322;48.846;9.230;2023-10-31T07:45:19;11.20;99.90
680;DHT22;322;48.846;9.230;2023-10-31T07:47:47;11.10;99.90
680;DHT22;322;48.846;9.230;2023-10-31T07:50:16;11.20;99.90
680;DHT22;322;48.846;9.230;2023-10-31T07:52:44;11.30;99.90
680;DHT22;322;48.846;9.230;2023-10-31T07:55:13;11.30;99.90
680;DHT22;322;48.846;9.230;2023-10-31T07:57:41;11.40;99.90
680;DHT22;322;48.846;9.230;2023-10-31T08:00:10;11.40;99.90
680;DHT22;322;48.846;9.230;2023-10-31T08:02:38;11.40;99.90
680;DHT22;322;48.846;9.230;2023-10-31T08:05:07;11.40;99.90
680;DHT22;322;48.846;9.230;2023-10-31T08:07:38;11.40;99.90
680;DHT22;322;48.846;9.230;2023-10-31T08:10:06;11.60;99.90
680;DHT22;322;48.846;9.230;2023-10-31T08:12:34;11.70;99.90
680;DHT22;322;48.846;9.230;2023-10-31T08:15:03;11.70;99.90
680;DHT22;322;48.846;9.230;2023-10-31T08:17:31;11.80;99.90
680;DHT22;322;48.846;9.230;2023-10-31T08:19:59;11.80;99.90
680;DHT22;322;48.846;9.230;2023-10-31T08:22:27;11.90;99.90
680;DHT22;322;48.846;9.230;2023-10-31T08:24:56;12.00;99.90
680;DHT22;322;48.846;9.230;2023-10-31T08:27:24;12.10;99.90
680;DHT22;322;48.846;9.230;2023-10-31T08:29:51;12.30;99.90
680;DHT22;322;48.846;9.230;2023-10-31T08:32:19;12.30;99.90
680;DHT22;322;48.846;9.230;2023-10-31T08:34:49;12.40;99.90
680;DHT22;322;48.846;9.230;2023-10-31T08:37:17;12.60;99.90
680;DHT22;322;48.846;9.230;2023-10-31T08:39:45;12.70;99.90
680;DHT22;322;48.846;9.230;2023-10-31T08:42:14;12.80;99.90
680;DHT22;322;48.846;9.230;2023-10-31T08:44:42;12.90;99.90
680;DHT22;322;48.846;9.230;2023-10-31T08:47:10;13.00;99.90
680;DHT22;322;48.846;9.230;2023-10-31T08:49:39;13.00;99.90
680;DHT22;322;48.846;9.230;2023-10-31T08:52:07;12.80;99.90
680;DHT22;322;48.846;9.230;2023-10-31T08:54:35;12.80;99.90
680;DHT22;322;48.846;9.230;2023-10-31T08:57:03;12.80;99.90
680;DHT22;322;48.846;9.230;2023-10-31T08:59:32;12.80;99.90
680;DHT22;322;48.846;9.230;2023-10-31T09:02:01;12.80;99.90
680;DHT22;322;48.846;9.230;2023-10-31T09:04:29;12.80;99.90
680;DHT22;322;48.846;9.230;2023-10-31T09:06:57;12.90;99.90
680;DHT22;322;48.846;9.230;2023-10-31T09:09:25;13.00;99.90
680;DHT22;322;48.846;9.230;2023-10-31T09:11:53;13.00;99.90
680;DHT22;322;48.846;9.230;2023-10-31T09:14:21;13.20;99.90
680;DHT22;322;48.846;9.230;2023-10-31T09:16:50;13.40;99.90
680;DHT22;322;48.846;9.230;2023-10-31T09:19:18;13.60;99.90
680;DHT22;322;48.846;9.230;2023-10-31T09:21:46;13.80;99.90
680;DHT22;322;48.846;9.230;2023-10-31T09:24:14;13.70;99.90
680;DHT22;322;48.846;9.230;2023-10-31T09:26:42;13.70;99.90
680;DHT22;322;48.846;9.230;2023-10-31T09:29:10;13.70;99.90
680;DHT22;322;48.846;9.230;2023-10-31T09:31:55;14.00;99.90
680;DHT22;322;48.846;9.230;2023-10-31T09:34:23;14.10;99.90
680;DHT22;322;48.846;9.230;2023-10-31T09:36:51;14.00;99.90
680;DHT22;322;48.846;9.230;2023-10-31T09:39:19;14.00;99.90
680;DHT22;322;48.846;9.230;2023-10-31T09:41:48;14.00;99.90
680;DHT22;322;48.846;9.230;2023-10-31T09:44:19;13.80;99.90
680;DHT22;322;48.846;9.230;2023-10-31T09:46:47;13.50;99.90
680;DHT22;322;48.846;9.230;2023-10-31T09:49:17;13.40;99.90
680;DHT22;322;48.846;9.230;2023-10-31T09:51:47;13.50;99.90
680;DHT22;322;48.846;9.230;2023-10-31T09:54:17;13.50;99.90
680;DHT22;322;48.846;9.230;2023-10-31T09:56:45;13.50;99.90
680;DHT22;322;48.846;9.230;2023-10-31T09:59:14;13.50;99.90
680;DHT22;322;48.846;9.230;2023-10-31T10:01:43;13.50;99.90
680;DHT22;322;48.846;9.230;2023-10-31T10:04:12;13.40;99.90
680;DHT22;322;48.846;9.230;2023-10-31T10:06:50;13.40;99.90
680;DHT22;322;48.846;9.230;2023-10-31T10:09:18;13.40;99.90
680;DHT22;322;48.846;9.230;2023-10-31T10:11:46;13.50;99.90
680;DHT22;322;48.846;9.230;2023-10-31T10:14:14;13.50;99.90
680;DHT22;322;48.846;9.230;2023-10-31T10:16:44;13.40;99.90
680;DHT22;322;48.846;9.230;2023-10-31T10:19:16;13.40;99.90
680;DHT22;322;48.846;9.230;2023-10-31T10:21:51;13.30;99.90
680;DHT22;322;48.846;9.230;2023-10-31T10:24:21;13.20;99.90
680;DHT22;322;48.846;9.230;2023-10-31T10:26:49;13.20;99.90
680;DHT22;322;48.846;9.230;2023-10-31T10:29:17;13.00;99.90
680;DHT22;322;48.846;9.230;2023-10-31T10:31:45;13.10;99.90
680;DHT22;322;48.846;9.230;2023-10-31T10:34:15;13.20;99.90
680;DHT22;322;48.846;9.230;2023-10-31T10:36:46;13.40;99.90
680;DHT22;322;48.846;9.230;2023-10-31T10:39:18;13.60;99.90
680;DHT22;322;48.846;9.230;2023-10-31T10:41:52;13.70;99.90
680;DHT22;322;48.846;9.230;2023-10-31T10:44:31;13.90;99.90
680;DHT22;322;48.846;9.230;2023-10-31T10:47:04;14.00;99.90
680;DHT22;322;48.846;9.230;2023-10-31T10:49:34;14.20;99.90
680;DHT22;322;48.846;9.230;2023-10-31T10:52:16;14.50;99.90
680;DHT22;322;48.846;9.230;2023-10-31T10:54:52;14.50;99.90
680;DHT22;322;48.846;9.230;2023-10-31T10:57:27;14.40;99.90
680;DHT22;322;48.846;9.230;2023-10-31T11:00:00;14.20;99.90
680;DHT22;322;48.846;9.230;2023-10-31T11:02:30;14.20;99.90
680;DHT22;322;48.846;9.230;2023-10-31T11:05:00;14.40;99.90
680;DHT22;322;48.846;9.230;2023-10-31T11:07:29;14.30;99.90
680;DHT22;322;48.846;9.230;2023-10-31T11:10:00;14.40;99.90
680;DHT22;322;48.846;9.230;2023-10-31T11:12:29;14.60;99.90
680;DHT22;322;48.846;9.230;2023-10-31T11:14:59;14.80;99.90
680;DHT22;322;48.846;9.230;2023-10-31T11:17:29;14.90;99.90
680;DHT22;322;48.846;9.230;2023-10-31T11:19:58;14.90;99.90
680;DHT22;322;48.846;9.230;2023-10-31T11:22:36;15.00;99.90
680;DHT22;322;48.846;9.230;2023-10-31T11:25:07;15.10;99.90
680;DHT22;322;48.846;9.230;2023-10-31T11:27:42;15.10;99.90
680;DHT22;322;48.846;9.230;2023-10-31T11:30:21;15.00;99.90
680;DHT22;322;48.846;9.230;2023-10-31T11:32:51;14.90;99.90
680;DHT22;322;48.846;9.230;2023-10-31T11:35:19;14.90;99.90
680;DHT22;322;48.846;9.230;2023-10-31T11:37:49;14.90;99.90
680;DHT22;322;48.846;9.230;2023-10-31T11:40:21;14.90;99.90
680;DHT22;322;48.846;9.230;2023-10-31T11:42:51;14.90;99.90
680;DHT22;322;48.846;9.230;2023-10-31T11:45:28;14.90;99.90
680;DHT22;322;48.846;9.230;2023-10-31T11:47:57;15.00;99.90
680;DHT22;322;48.846;9.230;2023-10-31T11:50:25;15.10;99.90
680;DHT22;322;48.846;9.230;2023-10-31T11:53:03;15.00;99.90
680;DHT22;322;48.846;9.230;2023-10-31T11:55:35;15.00;99.90
680;DHT22;322;48.846;9.230;2023-10-31T11:58:18;14.90;99.90
680;DHT22;322;48.846;9.230;2023-10-31T12:00:47;14.60;99.90
680;DHT22;322;48.846;9.230;2023-10-31T12:03:17;14.40;99.90
680;DHT22;322;48.846;9.230;2023-10-31T12:05:52;14.20;99.90
680;DHT22;322;48.846;9.230;2023-10-31T12:08:28;14.00;99.90
680;DHT22;322;48.846;9.230;2023-10-31T12:11:09;13.90;99.90
680;DHT22;322;48.846;9.230;2023-10-31T12:13:38;13.80;99.90
680;DHT22;322;48.846;9.230;2023-10-31T12:16:07;13.70;99.90
680;DHT22;322;48.846;9.230;2023-10-31T12:18:36;13.50;99.90
680;DHT22;322;48.846;9.230;2023-10-31T12:21:06;13.50;99.90
680;DHT22;322;48.846;9.230;2023-10-31T12:23:35;13.50;99.90
680;DHT22;322;48.846;9.230;2023-10-31T12:26:05;13.70;99.90
680;DHT22;322;48.846;9.230;2023-10-31T12:28:33;14.00;99.90
680;DHT22;322;48.846;9.230;2023-10-31T12:31:02;14.40;99.90
680;DHT22;322;48.846;9.230;2023-10-31T12:33:30;14.80;99.90
680;DHT22;322;48.846;9.230;2023-10-31T12:35:59;15.20;99.90
680;DHT22;322;48.846;9.230;2023-10-31T12:38:28;15.40;99.90
680;DHT22;322;48.846;9.230;2023-10-31T12:40:57;15.60;99.90
680;DHT22;322;48.846;9.230;2023-10-31T12:43:27;15.60;99.90
680;DHT22;322;48.846;9.230;2023-10-31T12:45:56;15.60;99.90
680;DHT22;322;48.846;9.230;2023-10-31T12:48:24;15.70;99.90
680;DHT22;322;48.846;9.230;2023-10-31T12:51:06;15.90;99.90
680;DHT22;322;48.846;9.230;2023-10-31T12:53:35;15.80;99.90
680;DHT22;322;48.846;9.230;2023-10-31T12:56:03;15.80;99.90
680;DHT22;322;48.846;9.230;2023-10-31T12:58:33;15.70;99.90
680;DHT22;322;48.846;9.230;2023-10-31T13:01:01;15.40;99.90
680;DHT22;322;48.846;9.230;2023-10-31T13:03:29;15.10;99.90
680;DHT22;322;48.846;9.230;2023-10-31T13:05:57;14.80;99.90
680;DHT22;322;48.846;9.230;2023-10-31T13:08:25;14.50;99.90
680;DHT22;322;48.846;9.230;2023-10-31T13:10:53;14.20;99.90
680;DHT22;322;48.846;9.230;2023-10-31T13:13:21;14.10;99.90
680;DHT22;322;48.846;9.230;2023-10-31T13:15:50;14.10;99.90
680;DHT22;322;48.846;9.230;2023-10-31T13:18:18;14.20;99.90
680;DHT22;322;48.846;9.230;2023-10-31T13:20:46;14.20;99.90
680;DHT22;322;48.846;9.230;2023-10-31T13:23:14;14.50;99.90
680;DHT22;322;48.846;9.230;2023-10-31T13:25:42;14.60;99.90
680;DHT22;322;48.846;9.230;2023-10-31T13:28:10;14.50;99.90
680;DHT22;322;48.846;9.230;2023-10-31T13:30:39;14.40;99.90
680;DHT22;322;48.846;9.230;2023-10-31T13:33:08;14.20;99.90
680;DHT22;322;48.846;9.230;2023-10-31T13:35:36;14.10;99.90
680;DHT22;322;48.846;9.230;2023-10-31T13:38:04;14.10;99.90
680;DHT22;322;48.846;9.230;2023-10-31T13:40:32;14.10;99.90
680;DHT22;322;48.846;9.230;2023-10-31T13:43:00;14.00;99.90
680;DHT22;322;48.846;9.230;2023-10-31T13:45:28;14.00;99.90
680;DHT22;322;48.846;9.230;2023-10-31T13:47:56;13.90;99.90
680;DHT22;322;48.846;9.230;2023-10-31T13:50:25;13.90;99.90
680;DHT22;322;48.846;9.230;2023-10-31T13:52:53;13.90;99.90
680;DHT22;322;48.846;9.230;2023-10-31T13:55:22;13.80;99.90
680;DHT22;322;48.846;9.230;2023-10-31T13:57:50;13.80;99.90
680;DHT22;322;48.846;9.230;2023-10-31T14:00:18;13.80;99.90
680;DHT22;322;48.846;9.230;2023-10-31T14:02:46;13.80;99.90
680;DHT22;322;48.846;9.230;2023-10-31T14:05:15;13.80;99.90
680;DHT22;322;48.846;9.230;2023-10-31T14:07:45;13.70;99.90
680;DHT22;322;48.846;9.230;2023-10-31T14:10:13;13.60;99.90
680;DHT22;322;48.846;9.230;2023-10-31T14:12:40;13.40;99.90
680;DHT22;322;48.846;9.230;2023-10-31T14:15:09;13.00;99.90
680;DHT22;322;48.846;9.230;2023-10-31T14:17:37;12.70;99.90
680;DHT22;322;48.846;9.230;2023-10-31T14:20:06;12.50;99.90
680;DHT22;322;48.846;9.230;2023-10-31T14:22:34;12.40;99.90
680;DHT22;322;48.846;9.230;2023-10-31T14:25:04;12.40;99.90
680;DHT22;322;48.846;9.230;2023-10-31T14:27:34;12.50;99.90
680;DHT22;322;48.846;9.230;2023-10-31T14:30:02;12.50;99.90
680;DHT22;322;48.846;9.230;2023-10-31T14:32:30;12.70;99.90
680;DHT22;322;48.846;9.230;2023-10-31T14:34:58;12.60;99.90
680;DHT22;322;48.846;9.230;2023-10-31T14:37:26;12.70;99.90
680;DHT22;322;48.846;9.230;2023-10-31T14:39:55;12.70;99.90
680;DHT22;322;48.846;9.230;2023-10-31T14:42:25;12.70;99.90
680;DHT22;322;48.846;9.230;2023-10-31T14:44:52;12.80;99.90
680;DHT22;322;48.846;9.230;2023-10-31T14:47:23;12.80;99.90
680;DHT22;322;48.846;9.230;2023-10-31T14:49:51;12.90;99.90
680;DHT22;322;48.846;9.230;2023-10-31T14:52:19;12.90;99.90
680;DHT22;322;48.846;9.230;2023-10-31T14:54:47;12.80;99.90
680;DHT22;322;48.846;9.230;2023-10-31T14:57:15;12.70;99.90
680;DHT22;322;48.846;9.230;2023-10-31T14:59:44;12.70;99.90
680;DHT22;322;48.846;9.230;2023-10-31T15:02:15;12.70;99.90
680;DHT22;322;48.846;9.230;2023-10-31T15:04:43;12.60;99.90
680;DHT22;322;48.846;9.230;2023-10-31T15:07:11;12.70;99.90
680;DHT22;322;48.846;9.230;2023-10-31T15:09:39;12.60;99.90
680;DHT22;322;48.846;9.230;2023-10-31T15:12:07;12.50;99.90
680;DHT22;322;48.846;9.230;2023-10-31T15:14:35;12.30;99.90
680;DHT22;322;48.846;9.230;2023-10-31T15:17:05;12.10;99.90
680;DHT22;322;48.846;9.230;2023-10-31T15:19:33;12.00;99.90
680;DHT22;322;48.846;9.230;2023-10-31T15:22:01;11.90;99.90
680;DHT22;322;48.846;9.230;2023-10-31T15:24:28;11.90;99.90
680;DHT22;322;48.846;9.230;2023-10-31T15:26:59;11.90;99.90
680;DHT22;322;48.846;9.230;2023-10-31T15:29:27;11.80;99.90
680;DHT22;322;48.846;9.230;2023-10-31T15:31:56;11.70;99.90
680;DHT22;322;48.846;9.230;2023-10-31T15:34:25;11.60;99.90
680;DHT22;322;48.846;9.230;2023-10-31T15:36:53;11.50;99.90
680;DHT22;322;48.846;9.230;2023-10-31T15:39:21;11.50;99.90
680;DHT22;322;48.846;9.230;2023-10-31T15:41:49;11.50;99.90
680;DHT22;322;48.846;9.230;2023-10-31T15:44:17;11.40;99.90
680;DHT22;322;48.846;9.230;2023-10-31T15:46:46;11.30;99.90
680;DHT22;322;48.846;9.230;2023-10-31T15:49:14;11.30;99.90
680;DHT22;322;48.846;9.230;2023-10-31T15:51:43;11.30;99.90
680;DHT22;322;48.846;9.230;2023-10-31T15:54:11;11.20;99.90
680;DHT22;322;48.846;9.230;2023-10-31T15:56:39;11.20;99.90
680;DHT22;322;48.846;9.230;2023-10-31T15:59:07;11.10;99.90
680;DHT22;322;48.846;9.230;2023-10-31T16:01:35;11.20;99.90
680;DHT22;322;48.846;9.230;2023-10-31T16:04:03;11.10;99.90
680;DHT22;322;48.846;9.230;2023-10-31T16:06:31;11.10;99.90
680;DHT22;322;48.846;9.230;2023-10-31T16:09:01;11.20;99.90
680;DHT22;322;48.846;9.230;2023-10-31T16:11:29;11.10;99.90
680;DHT22;322;48.846;9.230;2023-10-31T16:13:59;11.10;99.90
680;DHT22;322;48.846;9.230;2023-10-31T16:16:27;11.20;99.90
680;DHT22;322;48.846;9.230;2023-10-31T16:18:55;11.10;99.90
680;DHT22;322;48.846;9.230;2023-10-31T16:21:23;11.00;99.90
680;DHT22;322;48.846;9.230;2023-10-31T16:23:51;11.00;99.90
680;DHT22;322;48.846;9.230;2023-10-31T16:26:20;11.00;99.90
680;DHT22;322;48.846;9.230;2023-10-31T16:28:49;11.00;99.90
680;DHT22;322;48.846;9.230;2023-10-31T16:31:17;10.90;99.90
680;DHT22;322;48.846;9.230;2023-10-31T16:33:46;11.00;99.90
680;DHT22;322;48.846;9.230;2023-10-31T16:36:15;11.00;99.90
680;DHT22;322;48.846;9.230;2023-10-31T16:38:43;10.90;99.90
680;DHT22;322;48.846;9.230;2023-10-31T16:41:13;10.90;99.90
680;DHT22;322;48.846;9.230;2023-10-31T16:43:42;10.80;99.90
680;DHT22;322;48.846;9.230;2023-10-31T16:46:10;10.90;99.90
680;DHT22;322;48.846;9.230;2023-10-31T16:48:41;11.00;99.90